sensor_id;sensor_type;location;lat;lon;timestamp;pressure;altitude;pressure_sealevel;temperature;humidity
44765;BME280;30484;52.382;5.260;2022-12-16T00:01:15;101136.19;;;2.64;100.00
44765;BME280;30484;52.382;5.260;2022-12-16T00:03:49;101136.13;;;2.69;100.00
44765;BME280;30484;52.382;5.260;2022-12-16T00:06:23;101135.25;;;2.70;100.00
44765;BME280;30484;52.382;5.260;2022-12-16T00:08:53;101141.38;;;2.72;100.00
44765;BME280;30484;52.382;5.260;2022-12-16T00:11:23;101139.47;;;2.82;100.00
44765;BME280;30484;52.382;5.260;2022-12-16T00:13:53;101148.09;;;2.96;100.00
44765;BME280;30484;52.382;5.260;2022-12-16T00:16:22;101146.94;;;3.16;100.00
44765;BME280;30484;52.382;5.260;2022-12-16T00:18:52;101146.88;;;3.19;100.00
44765;BME280;30484;52.382;5.260;2022-12-16T00:21:21;101149.41;;;3.28;100.00
44765;BME280;30484;52.382;5.260;2022-12-16T00:23:55;101146.59;;;3.37;100.00
44765;BME280;30484;52.382;5.260;2022-12-16T00:26:25;101144.81;;;3.41;100.00
44765;BME280;30484;52.382;5.260;2022-12-16T00:28:56;101147.16;;;3.59;100.00
44765;BME280;30484;52.382;5.260;2022-12-16T00:31:26;101150.13;;;3.38;100.00
44765;BME280;30484;52.382;5.260;2022-12-16T00:33:57;101159.28;;;3.71;100.00
44765;BME280;30484;52.382;5.260;2022-12-16T00:36:28;101148.56;;;3.79;100.00
44765;BME280;30484;52.382;5.260;2022-12-16T00:39:01;101152.88;;;3.85;100.00
44765;BME280;30484;52.382;5.260;2022-12-16T00:41:29;101157.19;;;3.89;100.00
44765;BME280;30484;52.382;5.260;2022-12-16T00:43:59;101159.47;;;4.09;100.00
44765;BME280;30484;52.382;5.260;2022-12-16T00:46:28;101151.97;;;4.34;100.00
44765;BME280;30484;52.382;5.260;2022-12-16T00:48:58;101150.38;;;4.25;100.00
44765;BME280;30484;52.382;5.260;2022-12-16T00:51:27;101150.94;;;4.41;100.00
44765;BME280;30484;52.382;5.260;2022-12-16T00:53:56;101152.13;;;4.26;100.00
44765;BME280;30484;52.382;5.260;2022-12-16T00:56:25;101156.47;;;4.30;100.00
44765;BME280;30484;52.382;5.260;2022-12-16T00:58:55;101155.63;;;4.27;100.00
44765;BME280;30484;52.382;5.260;2022-12-16T01:01:23;101172.16;;;4.40;100.00
44765;BME280;30484;52.382;5.260;2022-12-16T01:03:58;101156.50;;;4.27;100.00
44765;BME280;30484;52.382;5.260;2022-12-16T01:06:26;101169.47;;;4.41;100.00
44765;BME280;30484;52.382;5.260;2022-12-16T01:08:55;101164.69;;;4.60;100.00
44765;BME280;30484;52.382;5.260;2022-12-16T01:11:25;101170.03;;;4.57;100.00
44765;BME280;30484;52.382;5.260;2022-12-16T01:13:54;101178.94;;;4.53;100.00
44765;BME280;30484;52.382;5.260;2022-12-16T01:16:23;101186.88;;;4.53;100.00
44765;BME280;30484;52.382;5.260;2022-12-16T01:18:57;101197.53;;;4.48;100.00
44765;BME280;30484;52.382;5.260;2022-12-16T01:21:27;101200.22;;;4.47;100.00
44765;BME280;30484;52.382;5.260;2022-12-16T01:23:56;101200.72;;;4.68;100.00
44765;BME280;30484;52.382;5.260;2022-12-16T01:26:27;101218.97;;;4.80;100.00
44765;BME280;30484;52.382;5.260;2022-12-16T01:28:56;101222.56;;;4.79;100.00
44765;BME280;30484;52.382;5.260;2022-12-16T01:31:25;101215.94;;;4.56;100.00
44765;BME280;30484;52.382;5.260;2022-12-16T01:33:55;101224.09;;;4.89;100.00
44765;BME280;30484;52.382;5.260;2022-12-16T01:36:34;101230.88;;;5.03;100.00
44765;BME280;30484;52.382;5.260;2022-12-16T01:39:05;101223.91;;;4.98;100.00
44765;BME280;30484;52.382;5.260;2022-12-16T01:41:35;101235.28;;;5.04;100.00
44765;BME280;30484;52.382;5.260;2022-12-16T01:44:20;101237.84;;;5.07;100.00
44765;BME280;30484;52.382;5.260;2022-12-16T01:46:55;101244.25;;;4.96;100.00
44765;BME280;30484;52.382;5.260;2022-12-16T01:49:34;101251.13;;;5.05;100.00
44765;BME280;30484;52.382;5.260;2022-12-16T01:52:11;101248.75;;;4.91;100.00
44765;BME280;30484;52.382;5.260;2022-12-16T01:54:45;101247.03;;;4.89;100.00
44765;BME280;30484;52.382;5.260;2022-12-16T01:57:19;101252.91;;;5.05;100.00
44765;BME280;30484;52.382;5.260;2022-12-16T01:59:51;101258.13;;;4.64;100.00
44765;BME280;30484;52.382;5.260;2022-12-16T02:02:22;101270.50;;;5.07;100.00
44765;BME280;30484;52.382;5.260;2022-12-16T02:04:54;101265.16;;;5.09;100.00
44765;BME280;30484;52.382;5.260;2022-12-16T02:07:42;101260.72;;;5.11;100.00
44765;BME280;30484;52.382;5.260;2022-12-16T02:10:12;101267.78;;;5.12;100.00
44765;BME280;30484;52.382;5.260;2022-12-16T02:12:46;101266.16;;;5.05;100.00
44765;BME280;30484;52.382;5.260;2022-12-16T02:15:23;101265.09;;;5.13;100.00
44765;BME280;30484;52.382;5.260;2022-12-16T02:18:04;101264.25;;;5.10;100.00
44765;BME280;30484;52.382;5.260;2022-12-16T02:21:05;101262.50;;;5.09;100.00
44765;BME280;30484;52.382;5.260;2022-12-16T02:24:46;101261.91;;;4.96;100.00
44765;BME280;30484;52.382;5.260;2022-12-16T02:27:50;101260.97;;;4.98;100.00
44765;BME280;30484;52.382;5.260;2022-12-16T02:31:03;101262.25;;;5.21;100.00
44765;BME280;30484;52.382;5.260;2022-12-16T02:33:49;101265.81;;;5.22;100.00
44765;BME280;30484;52.382;5.260;2022-12-16T02:36:52;101276.50;;;5.15;100.00
44765;BME280;30484;52.382;5.260;2022-12-16T02:39:26;101274.75;;;5.14;100.00
44765;BME280;30484;52.382;5.260;2022-12-16T02:42:05;101286.13;;;5.19;100.00
44765;BME280;30484;52.382;5.260;2022-12-16T02:44:40;101290.66;;;5.14;100.00
44765;BME280;30484;52.382;5.260;2022-12-16T02:47:13;101280.22;;;5.07;100.00
44765;BME280;30484;52.382;5.260;2022-12-16T02:49:47;101293.22;;;5.19;100.00
44765;BME280;30484;52.382;5.260;2022-12-16T02:52:21;101289.84;;;5.11;100.00
44765;BME280;30484;52.382;5.260;2022-12-16T02:54:54;101298.31;;;5.28;100.00
44765;BME280;30484;52.382;5.260;2022-12-16T02:57:57;101297.94;;;5.05;100.00
44765;BME280;30484;52.382;5.260;2022-12-16T03:00:37;101304.00;;;5.10;100.00
44765;BME280;30484;52.382;5.260;2022-12-16T03:03:13;101298.97;;;4.96;100.00
44765;BME280;30484;52.382;5.260;2022-12-16T03:05:50;101304.50;;;4.85;100.00
44765;BME280;30484;52.382;5.260;2022-12-16T03:08:27;101309.25;;;5.11;100.00
44765;BME280;30484;52.382;5.260;2022-12-16T03:11:02;101313.81;;;5.05;100.00
44765;BME280;30484;52.382;5.260;2022-12-16T03:13:49;101315.44;;;5.12;100.00
44765;BME280;30484;52.382;5.260;2022-12-16T03:16:22;101313.19;;;4.92;100.00
44765;BME280;30484;52.382;5.260;2022-12-16T03:19:00;101324.13;;;5.18;100.00
44765;BME280;30484;52.382;5.260;2022-12-16T03:21:37;101320.78;;;5.09;100.00
44765;BME280;30484;52.382;5.260;2022-12-16T03:24:12;101320.00;;;5.04;100.00
44765;BME280;30484;52.382;5.260;2022-12-16T03:26:50;101326.75;;;5.20;100.00
44765;BME280;30484;52.382;5.260;2022-12-16T03:29:26;101326.06;;;5.10;100.00
44765;BME280;30484;52.382;5.260;2022-12-16T03:32:01;101324.44;;;5.01;100.00
44765;BME280;30484;52.382;5.260;2022-12-16T03:34:35;101326.13;;;5.06;100.00
44765;BME280;30484;52.382;5.260;2022-12-16T03:37:08;101327.16;;;4.98;100.00
44765;BME280;30484;52.382;5.260;2022-12-16T03:39:42;101327.63;;;4.74;100.00
44765;BME280;30484;52.382;5.260;2022-12-16T03:42:15;101327.91;;;4.58;100.00
44765;BME280;30484;52.382;5.260;2022-12-16T03:44:45;101343.44;;;4.77;100.00
44765;BME280;30484;52.382;5.260;2022-12-16T03:47:14;101332.13;;;4.69;100.00
44765;BME280;30484;52.382;5.260;2022-12-16T03:49:51;101339.34;;;4.60;100.00
44765;BME280;30484;52.382;5.260;2022-12-16T03:52:20;101346.44;;;4.58;100.00
44765;BME280;30484;52.382;5.260;2022-12-16T03:54:49;101347.56;;;4.43;100.00
44765;BME280;30484;52.382;5.260;2022-12-16T03:57:18;101347.56;;;4.45;100.00
44765;BME280;30484;52.382;5.260;2022-12-16T03:59:47;101359.88;;;4.44;100.00
44765;BME280;30484;52.382;5.260;2022-12-16T04:02:15;101358.91;;;4.50;100.00
44765;BME280;30484;52.382;5.260;2022-12-16T04:04:45;101347.59;;;4.40;100.00
44765;BME280;30484;52.382;5.260;2022-12-16T04:07:15;101353.69;;;4.47;100.00
44765;BME280;30484;52.382;5.260;2022-12-16T04:09:48;101352.97;;;4.36;100.00
44765;BME280;30484;52.382;5.260;2022-12-16T04:12:19;101357.31;;;4.40;100.00
44765;BME280;30484;52.382;5.260;2022-12-16T04:15:08;101348.78;;;4.24;100.00
44765;BME280;30484;52.382;5.260;2022-12-16T04:17:57;101357.63;;;4.21;100.00
44765;BME280;30484;52.382;5.260;2022-12-16T04:20:46;101358.75;;;4.03;100.00
44765;BME280;30484;52.382;5.260;2022-12-16T04:23:35;101363.19;;;4.03;100.00
44765;BME280;30484;52.382;5.260;2022-12-16T04:26:22;101361.53;;;3.95;100.00
44765;BME280;30484;52.382;5.260;2022-12-16T04:28:53;101357.25;;;3.87;100.00
44765;BME280;30484;52.382;5.260;2022-12-16T04:31:25;101356.53;;;3.75;100.00
44765;BME280;30484;52.382;5.260;2022-12-16T04:33:55;101360.16;;;3.67;100.00
44765;BME280;30484;52.382;5.260;2022-12-16T04:36:50;101368.28;;;3.51;100.00
44765;BME280;30484;52.382;5.260;2022-12-16T04:39:37;101363.16;;;3.37;100.00
44765;BME280;30484;52.382;5.260;2022-12-16T04:42:24;101373.84;;;3.28;100.00
44765;BME280;30484;52.382;5.260;2022-12-16T04:45:13;101378.38;;;3.18;100.00
44765;BME280;30484;52.382;5.260;2022-12-16T04:47:59;101378.44;;;3.09;100.00
44765;BME280;30484;52.382;5.260;2022-12-16T04:50:45;101382.97;;;3.01;100.00
44765;BME280;30484;52.382;5.260;2022-12-16T04:53:33;101383.03;;;2.91;100.00
44765;BME280;30484;52.382;5.260;2022-12-16T04:56:21;101384.88;;;2.82;100.00
44765;BME280;30484;52.382;5.260;2022-12-16T04:59:07;101389.34;;;2.78;100.00
44765;BME280;30484;52.382;5.260;2022-12-16T05:01:54;101390.25;;;2.69;100.00
44765;BME280;30484;52.382;5.260;2022-12-16T05:04:46;101385.94;;;2.61;100.00
44765;BME280;30484;52.382;5.260;2022-12-16T05:07:32;101383.38;;;2.53;100.00
44765;BME280;30484;52.382;5.260;2022-12-16T05:10:18;101391.34;;;2.44;100.00
44765;BME280;30484;52.382;5.260;2022-12-16T05:13:05;101388.78;;;2.36;100.00
44765;BME280;30484;52.382;5.260;2022-12-16T05:15:51;101387.94;;;2.29;100.00
44765;BME280;30484;52.382;5.260;2022-12-16T05:18:37;101398.56;;;2.21;100.00
44765;BME280;30484;52.382;5.260;2022-12-16T05:21:30;101393.31;;;2.14;100.00
44765;BME280;30484;52.382;5.260;2022-12-16T05:24:18;101390.75;;;2.06;100.00
44765;BME280;30484;52.382;5.260;2022-12-16T05:27:03;101400.44;;;2.01;100.00
44765;BME280;30484;52.382;5.260;2022-12-16T05:29:50;101402.25;;;1.93;100.00
44765;BME280;30484;52.382;5.260;2022-12-16T05:32:38;101404.91;;;1.86;100.00
44765;BME280;30484;52.382;5.260;2022-12-16T05:35:24;101401.44;;;1.80;100.00
44765;BME280;30484;52.382;5.260;2022-12-16T05:38:10;101409.38;;;1.72;100.00
44765;BME280;30484;52.382;5.260;2022-12-16T05:40:56;101410.28;;;1.65;100.00
44765;BME280;30484;52.382;5.260;2022-12-16T05:43:42;101424.31;;;1.64;100.00
44765;BME280;30484;52.382;5.260;2022-12-16T05:46:30;101420.84;;;1.57;100.00
44765;BME280;30484;52.382;5.260;2022-12-16T05:49:16;101432.28;;;1.53;100.00
44765;BME280;30484;52.382;5.260;2022-12-16T05:52:03;101439.31;;;1.49;100.00
44765;BME280;30484;52.382;5.260;2022-12-16T05:54:49;101433.22;;;1.41;100.00
44765;BME280;30484;52.382;5.260;2022-12-16T05:57:35;101434.97;;;1.37;100.00
44765;BME280;30484;52.382;5.260;2022-12-16T06:00:23;101447.22;;;1.34;100.00
44765;BME280;30484;52.382;5.260;2022-12-16T06:03:11;101439.34;;;1.31;100.00
44765;BME280;30484;52.382;5.260;2022-12-16T06:05:58;101441.97;;;1.31;100.00
44765;BME280;30484;52.382;5.260;2022-12-16T06:08:44;101439.38;;;1.25;100.00
44765;BME280;30484;52.382;5.260;2022-12-16T06:11:30;101442.88;;;1.27;100.00
44765;BME280;30484;52.382;5.260;2022-12-16T06:14:16;101442.00;;;1.26;100.00
44765;BME280;30484;52.382;5.260;2022-12-16T06:17:03;101452.53;;;1.26;100.00
44765;BME280;30484;52.382;5.260;2022-12-16T06:19:51;101452.53;;;1.22;100.00
44765;BME280;30484;52.382;5.260;2022-12-16T06:22:42;101460.44;;;1.22;100.00
44765;BME280;30484;52.382;5.260;2022-12-16T06:25:28;101466.59;;;1.17;100.00
44765;BME280;30484;52.382;5.260;2022-12-16T06:28:14;101469.22;;;1.17;100.00
44765;BME280;30484;52.382;5.260;2022-12-16T06:31:02;101481.50;;;1.17;100.00
44765;BME280;30484;52.382;5.260;2022-12-16T06:33:49;101468.34;;;1.11;100.00
44765;BME280;30484;52.382;5.260;2022-12-16T06:36:37;101478.00;;;1.15;100.00
44765;BME280;30484;52.382;5.260;2022-12-16T06:39:23;101476.25;;;1.18;100.00
44765;BME280;30484;52.382;5.260;2022-12-16T06:42:12;101486.78;;;1.18;100.00
44765;BME280;30484;52.382;5.260;2022-12-16T06:44:59;101472.72;;;1.13;100.00
44765;BME280;30484;52.382;5.260;2022-12-16T06:47:45;101491.16;;;1.16;100.00
44765;BME280;30484;52.382;5.260;2022-12-16T06:50:31;101488.50;;;1.16;100.00
44765;BME280;30484;52.382;5.260;2022-12-16T06:53:26;101486.78;;;1.17;100.00
44765;BME280;30484;52.382;5.260;2022-12-16T06:56:12;101500.81;;;1.16;100.00
44765;BME280;30484;52.382;5.260;2022-12-16T06:58:58;101500.81;;;1.17;100.00
44765;BME280;30484;52.382;5.260;2022-12-16T07:01:47;101506.06;;;1.20;100.00
44765;BME280;30484;52.382;5.260;2022-12-16T07:04:33;101517.47;;;1.15;100.00
44765;BME280;30484;52.382;5.260;2022-12-16T07:07:22;101518.34;;;1.22;100.00
44765;BME280;30484;52.382;5.260;2022-12-16T07:10:10;101516.59;;;1.22;100.00
44765;BME280;30484;52.382;5.260;2022-12-16T07:12:57;101512.22;;;1.24;100.00
44765;BME280;30484;52.382;5.260;2022-12-16T07:15:46;101510.44;;;1.25;100.00
44765;BME280;30484;52.382;5.260;2022-12-16T07:18:35;101518.31;;;1.29;100.00
44765;BME280;30484;52.382;5.260;2022-12-16T07:21:22;101527.13;;;1.33;100.00
44765;BME280;30484;52.382;5.260;2022-12-16T07:24:09;101530.63;;;1.41;100.00
44765;BME280;30484;52.382;5.260;2022-12-16T07:26:57;101534.97;;;1.45;100.00
44765;BME280;30484;52.382;5.260;2022-12-16T07:29:44;101537.63;;;1.50;100.00
44765;BME280;30484;52.382;5.260;2022-12-16T07:32:32;101544.66;;;1.54;100.00
44765;BME280;30484;52.382;5.260;2022-12-16T07:35:18;101549.00;;;1.58;100.00
44765;BME280;30484;52.382;5.260;2022-12-16T07:38:05;101540.22;;;1.62;100.00
44765;BME280;30484;52.382;5.260;2022-12-16T07:40:51;101541.09;;;1.67;100.00
44765;BME280;30484;52.382;5.260;2022-12-16T07:43:39;101545.47;;;1.71;100.00
44765;BME280;30484;52.382;5.260;2022-12-16T07:46:36;101548.09;;;1.76;100.00
44765;BME280;30484;52.382;5.260;2022-12-16T07:49:23;101559.53;;;1.80;100.00
44765;BME280;30484;52.382;5.260;2022-12-16T07:52:10;101566.53;;;1.78;100.00
44765;BME280;30484;52.382;5.260;2022-12-16T07:55:05;101562.16;;;1.78;100.00
44765;BME280;30484;52.382;5.260;2022-12-16T07:57:51;101565.63;;;1.96;100.00
44765;BME280;30484;52.382;5.260;2022-12-16T08:00:41;101573.50;;;1.99;100.00
44765;BME280;30484;52.382;5.260;2022-12-16T08:03:36;101578.75;;;2.05;100.00
44765;BME280;30484;52.382;5.260;2022-12-16T08:06:23;101580.50;;;2.06;100.00
44765;BME280;30484;52.382;5.260;2022-12-16T08:09:08;101573.47;;;2.05;100.00
44765;BME280;30484;52.382;5.260;2022-12-16T08:11:58;101587.56;;;2.05;100.00
44765;BME280;30484;52.382;5.260;2022-12-16T08:14:45;101593.66;;;2.11;100.00
44765;BME280;30484;52.382;5.260;2022-12-16T08:17:49;101598.09;;;2.07;100.00
44765;BME280;30484;52.382;5.260;2022-12-16T08:20:36;101588.41;;;2.09;100.00
44765;BME280;30484;52.382;5.260;2022-12-16T08:23:22;101600.72;;;2.09;100.00
44765;BME280;30484;52.382;5.260;2022-12-16T08:26:09;101606.84;;;2.11;100.00
44765;BME280;30484;52.382;5.260;2022-12-16T08:28:59;101625.28;;;2.12;100.00
44765;BME280;30484;52.382;5.260;2022-12-16T08:32:06;101623.56;;;2.10;100.00
44765;BME280;30484;52.382;5.260;2022-12-16T08:34:54;101624.44;;;2.12;100.00
44765;BME280;30484;52.382;5.260;2022-12-16T08:37:41;101620.03;;;2.12;100.00
44765;BME280;30484;52.382;5.260;2022-12-16T08:40:32;101625.31;;;2.15;100.00
44765;BME280;30484;52.382;5.260;2022-12-16T08:43:21;101634.94;;;2.24;100.00
44765;BME280;30484;52.382;5.260;2022-12-16T08:46:07;101638.44;;;2.24;100.00
44765;BME280;30484;52.382;5.260;2022-12-16T08:48:53;101647.19;;;2.42;100.00
44765;BME280;30484;52.382;5.260;2022-12-16T08:51:42;101644.50;;;2.57;100.00
44765;BME280;30484;52.382;5.260;2022-12-16T08:54:29;101648.88;;;2.60;100.00
44765;BME280;30484;52.382;5.260;2022-12-16T08:57:15;101654.06;;;2.79;100.00
44765;BME280;30484;52.382;5.260;2022-12-16T09:00:02;101659.28;;;2.91;100.00
44765;BME280;30484;52.382;5.260;2022-12-16T09:02:54;101667.19;;;2.96;100.00
44765;BME280;30484;52.382;5.260;2022-12-16T09:05:49;101664.56;;;2.92;100.00
44765;BME280;30484;52.382;5.260;2022-12-16T09:08:37;101664.50;;;3.00;100.00
44765;BME280;30484;52.382;5.260;2022-12-16T09:11:25;101661.72;;;3.26;100.00
44765;BME280;30484;52.382;5.260;2022-12-16T09:14:11;101661.66;;;3.33;100.00
44765;BME280;30484;52.382;5.260;2022-12-16T09:16:58;101666.88;;;3.42;100.00
44765;BME280;30484;52.382;5.260;2022-12-16T09:19:49;101664.22;;;3.48;100.00
44765;BME280;30484;52.382;5.260;2022-12-16T09:22:37;101667.69;;;3.52;100.00
44765;BME280;30484;52.382;5.260;2022-12-16T09:25:26;101675.59;;;3.53;100.00
44765;BME280;30484;52.382;5.260;2022-12-16T09:28:14;101674.72;;;3.53;100.00
44765;BME280;30484;52.382;5.260;2022-12-16T09:31:03;101677.38;;;3.51;100.00
44765;BME280;30484;52.382;5.260;2022-12-16T09:33:49;101687.03;;;3.58;100.00
44765;BME280;30484;52.382;5.260;2022-12-16T09:36:39;101683.41;;;3.67;100.00
44765;BME280;30484;52.382;5.260;2022-12-16T09:39:41;101698.31;;;3.76;100.00
44765;BME280;30484;52.382;5.260;2022-12-16T09:42:37;101699.09;;;3.89;100.00
44765;BME280;30484;52.382;5.260;2022-12-16T09:45:37;101703.38;;;4.05;100.00
44765;BME280;30484;52.382;5.260;2022-12-16T09:48:35;101706.66;;;4.30;100.00
44765;BME280;30484;52.382;5.260;2022-12-16T09:51:23;101716.22;;;4.44;100.00
44765;BME280;30484;52.382;5.260;2022-12-16T09:54:15;101728.50;;;4.49;100.00
44765;BME280;30484;52.382;5.260;2022-12-16T09:57:04;101722.53;;;4.30;100.00
44765;BME280;30484;52.382;5.260;2022-12-16T09:59:59;101723.06;;;4.63;100.00
44765;BME280;30484;52.382;5.260;2022-12-16T10:02:48;101725.78;;;4.56;100.00
44765;BME280;30484;52.382;5.260;2022-12-16T10:05:51;101722.13;;;4.64;100.00
44765;BME280;30484;52.382;5.260;2022-12-16T10:08:49;101723.00;;;4.68;100.00
44765;BME280;30484;52.382;5.260;2022-12-16T10:11:47;101714.91;;;4.82;100.00
44765;BME280;30484;52.382;5.260;2022-12-16T10:14:45;101723.06;;;4.62;100.00
44765;BME280;30484;52.382;5.260;2022-12-16T10:17:39;101721.06;;;4.82;100.00
44765;BME280;30484;52.382;5.260;2022-12-16T10:20:39;101720.94;;;4.90;100.00
44765;BME280;30484;52.382;5.260;2022-12-16T10:23:33;101724.44;;;4.94;100.00
44765;BME280;30484;52.382;5.260;2022-12-16T10:26:32;101733.13;;;5.05;100.00
44765;BME280;30484;52.382;5.260;2022-12-16T10:29:24;101733.97;;;5.10;100.00
44765;BME280;30484;52.382;5.260;2022-12-16T10:32:32;101735.66;;;5.16;100.00
44765;BME280;30484;52.382;5.260;2022-12-16T10:35:28;101745.22;;;5.26;100.00
44765;BME280;30484;52.382;5.260;2022-12-16T10:38:21;101741.78;;;5.19;100.00
44765;BME280;30484;52.382;5.260;2022-12-16T10:41:10;101743.38;;;5.31;100.00
44765;BME280;30484;52.382;5.260;2022-12-16T10:44:01;101744.06;;;5.44;100.00
44765;BME280;30484;52.382;5.260;2022-12-16T10:46:55;101743.59;;;5.14;100.00
44765;BME280;30484;52.382;5.260;2022-12-16T10:49:46;101731.44;;;5.63;100.00
44765;BME280;30484;52.382;5.260;2022-12-16T10:53:11;101729.56;;;5.68;100.00
44765;BME280;30484;52.382;5.260;2022-12-16T10:56:10;101733.97;;;5.69;100.00
44765;BME280;30484;52.382;5.260;2022-12-16T10:59:03;101739.78;;;5.95;100.00
44765;BME280;30484;52.382;5.260;2022-12-16T11:01:56;101728.19;;;6.02;100.00
44765;BME280;30484;52.382;5.260;2022-12-16T11:04:44;101739.50;;;6.13;100.00
44765;BME280;30484;52.382;5.260;2022-12-16T11:07:35;101731.97;;;6.38;100.00
44765;BME280;30484;52.382;5.260;2022-12-16T11:10:36;101739.34;;;6.21;100.00
44765;BME280;30484;52.382;5.260;2022-12-16T11:13:26;101736.13;;;6.52;100.00
44765;BME280;30484;52.382;5.260;2022-12-16T11:16:18;101739.50;;;6.62;100.00
44765;BME280;30484;52.382;5.260;2022-12-16T11:19:19;101737.81;;;7.01;100.00
44765;BME280;30484;52.382;5.260;2022-12-16T11:22:22;101741.16;;;7.50;100.00
44765;BME280;30484;52.382;5.260;2022-12-16T11:25:15;101734.75;;;7.59;100.00
44765;BME280;30484;52.382;5.260;2022-12-16T11:28:09;101733.25;;;7.85;100.00
44765;BME280;30484;52.382;5.260;2022-12-16T11:30:59;101733.56;;;8.08;100.00
44765;BME280;30484;52.382;5.260;2022-12-16T11:33:50;101732.31;;;8.22;100.00
44765;BME280;30484;52.382;5.260;2022-12-16T11:36:40;101739.63;;;8.50;100.00
44765;BME280;30484;52.382;5.260;2022-12-16T11:39:32;101737.88;;;8.49;100.00
44765;BME280;30484;52.382;5.260;2022-12-16T11:42:24;101746.41;;;8.27;100.00
44765;BME280;30484;52.382;5.260;2022-12-16T11:45:17;101738.63;;;8.52;100.00
44765;BME280;30484;52.382;5.260;2022-12-16T11:48:16;101743.91;;;8.55;100.00
44765;BME280;30484;52.382;5.260;2022-12-16T11:51:12;101756.66;;;8.42;100.00
44765;BME280;30484;52.382;5.260;2022-12-16T11:54:09;101743.47;;;8.36;100.00
44765;BME280;30484;52.382;5.260;2022-12-16T11:57:01;101751.56;;;8.33;100.00
44765;BME280;30484;52.382;5.260;2022-12-16T11:59:55;101744.75;;;7.87;100.00
44765;BME280;30484;52.382;5.260;2022-12-16T12:02:48;101760.03;;;8.15;100.00
44765;BME280;30484;52.382;5.260;2022-12-16T12:05:41;101759.78;;;7.88;100.00
44765;BME280;30484;52.382;5.260;2022-12-16T12:08:37;101757.94;;;7.91;100.00
44765;BME280;30484;52.382;5.260;2022-12-16T12:11:30;101761.72;;;7.42;100.00
44765;BME280;30484;52.382;5.260;2022-12-16T12:14:31;101763.44;;;7.84;100.00
44765;BME280;30484;52.382;5.260;2022-12-16T12:17:31;101768.94;;;7.38;100.00
44765;BME280;30484;52.382;5.260;2022-12-16T12:20:41;101768.69;;;7.48;100.00
44765;BME280;30484;52.382;5.260;2022-12-16T12:23:45;101766.31;;;7.37;100.00
44765;BME280;30484;52.382;5.260;2022-12-16T12:26:54;101765.53;;;7.69;100.00
44765;BME280;30484;52.382;5.260;2022-12-16T12:30:02;101768.00;;;7.78;100.00
44765;BME280;30484;52.382;5.260;2022-12-16T12:33:05;101773.41;;;7.35;100.00
44765;BME280;30484;52.382;5.260;2022-12-16T12:36:05;101772.84;;;7.20;100.00
44765;BME280;30484;52.382;5.260;2022-12-16T12:39:10;101779.16;;;7.57;100.00
44765;BME280;30484;52.382;5.260;2022-12-16T12:42:19;101768.38;;;7.21;100.00
44765;BME280;30484;52.382;5.260;2022-12-16T12:45:40;101771.41;;;7.84;100.00
44765;BME280;30484;52.382;5.260;2022-12-16T12:48:36;101771.59;;;7.38;100.00
44765;BME280;30484;52.382;5.260;2022-12-16T12:51:34;101778.38;;;7.52;100.00
44765;BME280;30484;52.382;5.260;2022-12-16T12:54:32;101783.69;;;7.52;100.00
44765;BME280;30484;52.382;5.260;2022-12-16T12:57:25;101789.97;;;7.48;100.00
44765;BME280;30484;52.382;5.260;2022-12-16T13:00:18;101788.31;;;7.42;100.00
44765;BME280;30484;52.382;5.260;2022-12-16T13:03:13;101785.19;;;7.23;100.00
44765;BME280;30484;52.382;5.260;2022-12-16T13:06:15;101791.28;;;7.28;100.00
44765;BME280;30484;52.382;5.260;2022-12-16T13:09:33;101787.38;;;7.02;100.00
44765;BME280;30484;52.382;5.260;2022-12-16T13:12:25;101792.81;;;6.96;100.00
44765;BME280;30484;52.382;5.260;2022-12-16T13:15:34;101796.13;;;7.07;100.00
44765;BME280;30484;52.382;5.260;2022-12-16T13:18:25;101794.81;;;7.29;100.00
44765;BME280;30484;52.382;5.260;2022-12-16T13:21:44;101806.31;;;7.29;100.00
44765;BME280;30484;52.382;5.260;2022-12-16T13:24:43;101806.19;;;7.35;100.00
44765;BME280;30484;52.382;5.260;2022-12-16T13:27:53;101805.09;;;7.02;100.00
44765;BME280;30484;52.382;5.260;2022-12-16T13:30:59;101798.19;;;7.37;100.00
44765;BME280;30484;52.382;5.260;2022-12-16T13:33:52;101809.47;;;7.47;100.00
44765;BME280;30484;52.382;5.260;2022-12-16T13:36:41;101797.63;;;7.21;100.00
44765;BME280;30484;52.382;5.260;2022-12-16T13:39:30;101805.50;;;7.27;100.00
44765;BME280;30484;52.382;5.260;2022-12-16T13:42:53;101805.56;;;7.22;100.00
44765;BME280;30484;52.382;5.260;2022-12-16T13:45:42;101807.50;;;7.16;100.00
44765;BME280;30484;52.382;5.260;2022-12-16T13:48:36;101808.16;;;7.27;100.00
44765;BME280;30484;52.382;5.260;2022-12-16T13:52:13;101812.31;;;6.95;100.00
44765;BME280;30484;52.382;5.260;2022-12-16T13:55:13;101815.34;;;6.75;100.00
44765;BME280;30484;52.382;5.260;2022-12-16T13:58:20;101820.41;;;6.89;100.00
44765;BME280;30484;52.382;5.260;2022-12-16T14:01:12;101815.75;;;7.02;100.00
44765;BME280;30484;52.382;5.260;2022-12-16T14:04:02;101821.03;;;7.03;100.00
44765;BME280;30484;52.382;5.260;2022-12-16T14:06:55;101828.09;;;7.04;100.00
44765;BME280;30484;52.382;5.260;2022-12-16T14:09:58;101820.22;;;6.98;100.00
44765;BME280;30484;52.382;5.260;2022-12-16T14:13:00;101832.91;;;6.84;100.00
44765;BME280;30484;52.382;5.260;2022-12-16T14:16:01;101840.63;;;6.98;100.00
44765;BME280;30484;52.382;5.260;2022-12-16T14:19:06;101840.66;;;6.96;100.00
44765;BME280;30484;52.382;5.260;2022-12-16T14:22:03;101853.09;;;6.94;100.00
44765;BME280;30484;52.382;5.260;2022-12-16T14:24:54;101849.19;;;7.12;100.00
44765;BME280;30484;52.382;5.260;2022-12-16T14:27:40;101852.63;;;7.19;100.00
44765;BME280;30484;52.382;5.260;2022-12-16T14:30:28;101859.47;;;6.84;100.00
44765;BME280;30484;52.382;5.260;2022-12-16T14:33:22;101858.44;;;6.91;100.00